sensor_id;sensor_type;location;lat;lon;timestamp;temperature;humidity
4314;DHT22;2170;48.794;9.182;2023-12-22T00:02:00;8.00;99.90
4314;DHT22;2170;48.794;9.182;2023-12-22T00:05:06;8.00;99.90
4314;DHT22;2170;48.794;9.182;2023-12-22T00:11:07;7.90;99.90
4314;DHT22;2170;48.794;9.182;2023-12-22T00:13:47;8.00;99.90
4314;DHT22;2170;48.794;9.182;2023-12-22T00:16:19;7.90;99.90
4314;DHT22;2170;48.794;9.182;2023-12-22T00:19:00;8.00;99.90
4314;DHT22;2170;48.794;9.182;2023-12-22T00:21:35;8.10;99.90
4314;DHT22;2170;48.794;9.182;2023-12-22T00:24:25;8.10;99.90
4314;DHT22;2170;48.794;9.182;2023-12-22T00:27:23;8.10;99.90
4314;DHT22;2170;48.794;9.182;2023-12-22T00:30:17;8.10;99.90
4314;DHT22;2170;48.794;9.182;2023-12-22T00:33:00;8.10;99.90
4314;DHT22;2170;48.794;9.182;2023-12-22T00:35:53;8.10;99.90
4314;DHT22;2170;48.794;9.182;2023-12-22T00:39:15;8.10;99.90
4314;DHT22;2170;48.794;9.182;2023-12-22T00:45:18;7.60;99.90
4314;DHT22;2170;48.794;9.182;2023-12-22T00:48:02;7.60;99.90
4314;DHT22;2170;48.794;9.182;2023-12-22T00:50:50;7.40;99.90
4314;DHT22;2170;48.794;9.182;2023-12-22T00:54:06;7.70;99.90
4314;DHT22;2170;48.794;9.182;2023-12-22T00:57:06;7.40;99.90
4314;DHT22;2170;48.794;9.182;2023-12-22T01:00:04;7.70;99.90
4314;DHT22;2170;48.794;9.182;2023-12-22T01:02:46;7.60;99.90
4314;DHT22;2170;48.794;9.182;2023-12-22T01:05:34;7.70;99.90
4314;DHT22;2170;48.794;9.182;2023-12-22T01:08:06;7.70;99.90
4314;DHT22;2170;48.794;9.182;2023-12-22T01:10:54;7.40;99.90
4314;DHT22;2170;48.794;9.182;2023-12-22T01:13:38;7.70;99.90
4314;DHT22;2170;48.794;9.182;2023-12-22T01:16:17;7.70;99.90
4314;DHT22;2170;48.794;9.182;2023-12-22T01:18:57;7.70;99.90
4314;DHT22;2170;48.794;9.182;2023-12-22T01:21:29;7.70;99.90
4314;DHT22;2170;48.794;9.182;2023-12-22T01:24:15;7.90;99.90
4314;DHT22;2170;48.794;9.182;2023-12-22T01:26:53;7.70;99.90
4314;DHT22;2170;48.794;9.182;2023-12-22T01:29:33;7.80;99.90
4314;DHT22;2170;48.794;9.182;2023-12-22T01:32:06;7.50;99.90
4314;DHT22;2170;48.794;9.182;2023-12-22T01:34:39;7.90;99.90
4314;DHT22;2170;48.794;9.182;2023-12-22T01:37:21;7.90;99.90
4314;DHT22;2170;48.794;9.182;2023-12-22T01:40:14;7.90;99.90
4314;DHT22;2170;48.794;9.182;2023-12-22T01:42:58;7.90;99.90
4314;DHT22;2170;48.794;9.182;2023-12-22T01:45:30;7.90;99.90
4314;DHT22;2170;48.794;9.182;2023-12-22T01:48:18;7.90;99.90
4314;DHT22;2170;48.794;9.182;2023-12-22T01:50:55;8.00;99.90
4314;DHT22;2170;48.794;9.182;2023-12-22T01:53:29;8.00;99.90
4314;DHT22;2170;48.794;9.182;2023-12-22T01:59:14;8.00;99.90
4314;DHT22;2170;48.794;9.182;2023-12-22T02:01:56;8.00;99.90
4314;DHT22;2170;48.794;9.182;2023-12-22T02:04:35;8.00;99.90
4314;DHT22;2170;48.794;9.182;2023-12-22T02:07:27;8.00;99.90
4314;DHT22;2170;48.794;9.182;2023-12-22T02:10:31;8.00;99.90
4314;DHT22;2170;48.794;9.182;2023-12-22T02:13:08;8.00;99.90
4314;DHT22;2170;48.794;9.182;2023-12-22T02:15:47;7.90;99.90
4314;DHT22;2170;48.794;9.182;2023-12-22T02:21:22;8.00;99.90
4314;DHT22;2170;48.794;9.182;2023-12-22T02:24:11;8.00;99.90
4314;DHT22;2170;48.794;9.182;2023-12-22T02:26:56;7.70;99.90
4314;DHT22;2170;48.794;9.182;2023-12-22T02:29:36;8.00;99.90
4314;DHT22;2170;48.794;9.182;2023-12-22T02:32:56;8.00;99.90
4314;DHT22;2170;48.794;9.182;2023-12-22T02:35:37;7.90;99.90
4314;DHT22;2170;48.794;9.182;2023-12-22T02:38:18;8.00;99.90
4314;DHT22;2170;48.794;9.182;2023-12-22T02:41:08;8.00;99.90
4314;DHT22;2170;48.794;9.182;2023-12-22T02:43:54;8.00;99.90
4314;DHT22;2170;48.794;9.182;2023-12-22T02:46:42;8.30;99.90
4314;DHT22;2170;48.794;9.182;2023-12-22T02:49:33;8.00;99.90
4314;DHT22;2170;48.794;9.182;2023-12-22T02:52:02;8.10;99.90
4314;DHT22;2170;48.794;9.182;2023-12-22T02:54:48;8.10;99.90
4314;DHT22;2170;48.794;9.182;2023-12-22T02:57:37;8.10;99.90
4314;DHT22;2170;48.794;9.182;2023-12-22T03:00:22;8.20;99.90
4314;DHT22;2170;48.794;9.182;2023-12-22T03:03:09;8.20;99.90
4314;DHT22;2170;48.794;9.182;2023-12-22T03:06:04;8.30;99.90
4314;DHT22;2170;48.794;9.182;2023-12-22T03:08:37;8.20;99.90
4314;DHT22;2170;48.794;9.182;2023-12-22T03:11:32;8.30;99.90
4314;DHT22;2170;48.794;9.182;2023-12-22T03:14:26;8.30;99.90
4314;DHT22;2170;48.794;9.182;2023-12-22T03:17:19;8.20;99.90
4314;DHT22;2170;48.794;9.182;2023-12-22T03:20:02;8.30;99.90
4314;DHT22;2170;48.794;9.182;2023-12-22T03:22:52;8.40;99.90
4314;DHT22;2170;48.794;9.182;2023-12-22T03:25:53;8.10;99.90
4314;DHT22;2170;48.794;9.182;2023-12-22T03:28:28;8.70;99.90
4314;DHT22;2170;48.794;9.182;2023-12-22T03:31:08;8.50;99.90
4314;DHT22;2170;48.794;9.182;2023-12-22T03:33:55;8.40;99.90
4314;DHT22;2170;48.794;9.182;2023-12-22T03:36:42;8.50;99.90
4314;DHT22;2170;48.794;9.182;2023-12-22T03:39:25;8.40;99.90
4314;DHT22;2170;48.794;9.182;2023-12-22T03:42:04;8.50;99.90
4314;DHT22;2170;48.794;9.182;2023-12-22T03:44:49;8.50;99.90
4314;DHT22;2170;48.794;9.182;2023-12-22T03:47:41;8.50;99.90
4314;DHT22;2170;48.794;9.182;2023-12-22T03:50:25;8.50;99.90
4314;DHT22;2170;48.794;9.182;2023-12-22T03:53:36;8.50;99.90
4314;DHT22;2170;48.794;9.182;2023-12-22T03:56:19;8.30;99.90
4314;DHT22;2170;48.794;9.182;2023-12-22T03:58:58;8.40;99.90
4314;DHT22;2170;48.794;9.182;2023-12-22T04:01:35;8.50;99.90
4314;DHT22;2170;48.794;9.182;2023-12-22T04:04:17;8.10;99.90
4314;DHT22;2170;48.794;9.182;2023-12-22T04:07:06;7.90;99.90
4314;DHT22;2170;48.794;9.182;2023-12-22T04:09:51;7.80;99.90
4314;DHT22;2170;48.794;9.182;2023-12-22T04:12:25;7.70;99.90
4314;DHT22;2170;48.794;9.182;2023-12-22T04:15:12;7.60;99.90
4314;DHT22;2170;48.794;9.182;2023-12-22T04:17:55;7.60;99.90
4314;DHT22;2170;48.794;9.182;2023-12-22T04:20:45;7.50;99.90
4314;DHT22;2170;48.794;9.182;2023-12-22T04:23:20;7.50;99.90
4314;DHT22;2170;48.794;9.182;2023-12-22T04:25:53;7.50;99.90
4314;DHT22;2170;48.794;9.182;2023-12-22T04:28:29;7.40;99.90
4314;DHT22;2170;48.794;9.182;2023-12-22T04:31:06;7.50;99.90
4314;DHT22;2170;48.794;9.182;2023-12-22T04:33:41;7.60;99.90
4314;DHT22;2170;48.794;9.182;2023-12-22T04:36:17;7.60;99.90
4314;DHT22;2170;48.794;9.182;2023-12-22T04:38:51;7.70;99.90
4314;DHT22;2170;48.794;9.182;2023-12-22T04:41:22;7.80;99.90
4314;DHT22;2170;48.794;9.182;2023-12-22T04:44:01;7.80;99.90
4314;DHT22;2170;48.794;9.182;2023-12-22T04:46:45;7.90;99.90
4314;DHT22;2170;48.794;9.182;2023-12-22T04:49:21;8.00;99.90
4314;DHT22;2170;48.794;9.182;2023-12-22T04:52:18;8.00;99.90
4314;DHT22;2170;48.794;9.182;2023-12-22T04:55:38;7.70;99.90
4314;DHT22;2170;48.794;9.182;2023-12-22T04:58:36;8.00;99.90
4314;DHT22;2170;48.794;9.182;2023-12-22T05:01:31;8.00;99.90
4314;DHT22;2170;48.794;9.182;2023-12-22T05:04:11;8.00;99.90
4314;DHT22;2170;48.794;9.182;2023-12-22T05:06:58;8.00;99.90
4314;DHT22;2170;48.794;9.182;2023-12-22T05:10:29;8.00;99.90
4314;DHT22;2170;48.794;9.182;2023-12-22T05:13:29;8.10;99.90
4314;DHT22;2170;48.794;9.182;2023-12-22T05:16:37;8.00;99.90
4314;DHT22;2170;48.794;9.182;2023-12-22T05:19:38;8.30;99.90
4314;DHT22;2170;48.794;9.182;2023-12-22T05:22:40;8.20;99.90
4314;DHT22;2170;48.794;9.182;2023-12-22T05:25:30;8.10;99.90
4314;DHT22;2170;48.794;9.182;2023-12-22T05:28:36;8.10;99.90
4314;DHT22;2170;48.794;9.182;2023-12-22T05:37:25;7.90;99.90
4314;DHT22;2170;48.794;9.182;2023-12-22T05:40:09;8.10;99.90
4314;DHT22;2170;48.794;9.182;2023-12-22T05:46:25;7.70;99.90
4314;DHT22;2170;48.794;9.182;2023-12-22T05:49:20;8.00;99.90
4314;DHT22;2170;48.794;9.182;2023-12-22T05:52:19;7.90;99.90
4314;DHT22;2170;48.794;9.182;2023-12-22T05:55:09;8.00;99.90
4314;DHT22;2170;48.794;9.182;2023-12-22T05:57:45;8.10;99.90
4314;DHT22;2170;48.794;9.182;2023-12-22T06:00:35;8.20;99.90
4314;DHT22;2170;48.794;9.182;2023-12-22T06:03:21;8.30;99.90
4314;DHT22;2170;48.794;9.182;2023-12-22T06:06:11;8.30;99.90
4314;DHT22;2170;48.794;9.182;2023-12-22T06:08:54;8.40;99.90
4314;DHT22;2170;48.794;9.182;2023-12-22T06:17:47;8.50;99.90
4314;DHT22;2170;48.794;9.182;2023-12-22T06:20:39;8.50;99.90
4314;DHT22;2170;48.794;9.182;2023-12-22T06:23:26;8.50;99.90
4314;DHT22;2170;48.794;9.182;2023-12-22T06:26:23;8.50;99.90
4314;DHT22;2170;48.794;9.182;2023-12-22T06:29:04;8.50;99.90
4314;DHT22;2170;48.794;9.182;2023-12-22T06:32:04;8.50;99.90
4314;DHT22;2170;48.794;9.182;2023-12-22T06:35:15;8.50;99.90
4314;DHT22;2170;48.794;9.182;2023-12-22T06:38:35;8.50;99.90
4314;DHT22;2170;48.794;9.182;2023-12-22T06:41:22;8.50;99.90
4314;DHT22;2170;48.794;9.182;2023-12-22T06:44:19;8.50;99.90
4314;DHT22;2170;48.794;9.182;2023-12-22T06:47:10;8.50;99.90
4314;DHT22;2170;48.794;9.182;2023-12-22T06:53:23;8.50;99.90
4314;DHT22;2170;48.794;9.182;2023-12-22T06:56:20;8.50;99.90
4314;DHT22;2170;48.794;9.182;2023-12-22T06:59:10;8.50;99.90
4314;DHT22;2170;48.794;9.182;2023-12-22T07:01:56;8.50;99.90
4314;DHT22;2170;48.794;9.182;2023-12-22T07:08:28;8.50;99.90
4314;DHT22;2170;48.794;9.182;2023-12-22T07:11:57;8.50;99.90
4314;DHT22;2170;48.794;9.182;2023-12-22T07:14:56;8.20;99.90
4314;DHT22;2170;48.794;9.182;2023-12-22T07:20:37;8.20;99.90
4314;DHT22;2170;48.794;9.182;2023-12-22T07:23:12;8.40;99.90
4314;DHT22;2170;48.794;9.182;2023-12-22T07:26:11;8.40;99.90
4314;DHT22;2170;48.794;9.182;2023-12-22T07:28:58;8.40;99.90
4314;DHT22;2170;48.794;9.182;2023-12-22T07:31:56;8.40;99.90
4314;DHT22;2170;48.794;9.182;2023-12-22T07:34:40;8.30;99.90
4314;DHT22;2170;48.794;9.182;2023-12-22T07:37:59;8.40;99.90
4314;DHT22;2170;48.794;9.182;2023-12-22T07:40:52;8.40;99.90
4314;DHT22;2170;48.794;9.182;2023-12-22T07:43:29;8.10;99.90
4314;DHT22;2170;48.794;9.182;2023-12-22T07:46:24;8.60;99.90
4314;DHT22;2170;48.794;9.182;2023-12-22T07:49:10;8.40;99.90
4314;DHT22;2170;48.794;9.182;2023-12-22T07:51:50;8.40;99.90
4314;DHT22;2170;48.794;9.182;2023-12-22T07:54:51;8.40;99.90
4314;DHT22;2170;48.794;9.182;2023-12-22T08:00:20;8.40;99.90
4314;DHT22;2170;48.794;9.182;2023-12-22T08:02:57;8.40;99.90
4314;DHT22;2170;48.794;9.182;2023-12-22T08:05:43;8.30;99.90
4314;DHT22;2170;48.794;9.182;2023-12-22T08:08:37;8.30;99.90
4314;DHT22;2170;48.794;9.182;2023-12-22T08:11:22;8.20;99.90
4314;DHT22;2170;48.794;9.182;2023-12-22T08:14:26;8.10;99.90
4314;DHT22;2170;48.794;9.182;2023-12-22T08:17:24;7.90;99.90
4314;DHT22;2170;48.794;9.182;2023-12-22T08:20:16;7.50;99.90
4314;DHT22;2170;48.794;9.182;2023-12-22T08:22:54;7.70;99.90
4314;DHT22;2170;48.794;9.182;2023-12-22T08:25:42;7.70;99.90
4314;DHT22;2170;48.794;9.182;2023-12-22T08:28:19;7.60;99.90
4314;DHT22;2170;48.794;9.182;2023-12-22T08:31:18;7.60;99.90
4314;DHT22;2170;48.794;9.182;2023-12-22T08:34:00;7.60;99.90
4314;DHT22;2170;48.794;9.182;2023-12-22T08:36:51;7.50;99.90
4314;DHT22;2170;48.794;9.182;2023-12-22T08:39:41;7.30;99.90
4314;DHT22;2170;48.794;9.182;2023-12-22T08:42:32;7.60;99.90
4314;DHT22;2170;48.794;9.182;2023-12-22T08:45:09;7.70;99.90
4314;DHT22;2170;48.794;9.182;2023-12-22T08:48:12;7.70;99.90
4314;DHT22;2170;48.794;9.182;2023-12-22T08:50:49;7.80;99.90
4314;DHT22;2170;48.794;9.182;2023-12-22T08:53:33;7.90;99.90
4314;DHT22;2170;48.794;9.182;2023-12-22T08:56:18;7.90;99.90
4314;DHT22;2170;48.794;9.182;2023-12-22T08:59:35;7.90;99.90
4314;DHT22;2170;48.794;9.182;2023-12-22T09:02:21;7.70;99.90
4314;DHT22;2170;48.794;9.182;2023-12-22T09:05:13;8.00;99.90
4314;DHT22;2170;48.794;9.182;2023-12-22T09:07:53;7.80;99.90
4314;DHT22;2170;48.794;9.182;2023-12-22T09:10:36;8.10;99.90
4314;DHT22;2170;48.794;9.182;2023-12-22T09:13:31;8.10;99.90
4314;DHT22;2170;48.794;9.182;2023-12-22T09:16:02;8.20;99.90
4314;DHT22;2170;48.794;9.182;2023-12-22T09:18:37;8.10;99.90
4314;DHT22;2170;48.794;9.182;2023-12-22T09:21:32;8.20;99.90
4314;DHT22;2170;48.794;9.182;2023-12-22T09:24:28;8.40;99.90
4314;DHT22;2170;48.794;9.182;2023-12-22T09:27:29;8.50;99.90
4314;DHT22;2170;48.794;9.182;2023-12-22T09:30:16;8.20;99.90
4314;DHT22;2170;48.794;9.182;2023-12-22T09:33:00;8.20;99.90
4314;DHT22;2170;48.794;9.182;2023-12-22T09:35:30;8.50;99.90
4314;DHT22;2170;48.794;9.182;2023-12-22T09:38:18;8.50;99.90
4314;DHT22;2170;48.794;9.182;2023-12-22T09:44:09;8.70;99.90
4314;DHT22;2170;48.794;9.182;2023-12-22T09:47:11;8.60;99.90
4314;DHT22;2170;48.794;9.182;2023-12-22T09:49:54;8.60;99.90
4314;DHT22;2170;48.794;9.182;2023-12-22T09:55:45;8.70;99.90
4314;DHT22;2170;48.794;9.182;2023-12-22T09:58:35;8.70;99.90
4314;DHT22;2170;48.794;9.182;2023-12-22T10:01:09;8.70;99.90
4314;DHT22;2170;48.794;9.182;2023-12-22T10:07:20;8.80;99.90
4314;DHT22;2170;48.794;9.182;2023-12-22T10:10:12;8.80;99.90
4314;DHT22;2170;48.794;9.182;2023-12-22T10:13:02;9.00;99.90
4314;DHT22;2170;48.794;9.182;2023-12-22T10:16:01;8.70;99.90
4314;DHT22;2170;48.794;9.182;2023-12-22T10:18:49;8.80;99.90
4314;DHT22;2170;48.794;9.182;2023-12-22T10:24:44;8.80;99.90
4314;DHT22;2170;48.794;9.182;2023-12-22T10:27:22;8.90;99.90
4314;DHT22;2170;48.794;9.182;2023-12-22T10:30:12;8.90;99.90
4314;DHT22;2170;48.794;9.182;2023-12-22T10:33:05;8.60;99.90
4314;DHT22;2170;48.794;9.182;2023-12-22T10:35:50;9.20;99.90
4314;DHT22;2170;48.794;9.182;2023-12-22T10:38:42;9.00;99.90
4314;DHT22;2170;48.794;9.182;2023-12-22T10:41:32;9.00;99.90
4314;DHT22;2170;48.794;9.182;2023-12-22T10:44:25;9.00;99.90
4314;DHT22;2170;48.794;9.182;2023-12-22T10:47:22;9.10;99.90
4314;DHT22;2170;48.794;9.182;2023-12-22T10:50:04;9.00;99.90
4314;DHT22;2170;48.794;9.182;2023-12-22T10:52:51;8.70;99.90
4314;DHT22;2170;48.794;9.182;2023-12-22T10:55:51;9.00;99.90
4314;DHT22;2170;48.794;9.182;2023-12-22T10:58:48;9.00;99.90
4314;DHT22;2170;48.794;9.182;2023-12-22T11:01:42;9.00;99.90
4314;DHT22;2170;48.794;9.182;2023-12-22T11:04:52;9.00;99.90
4314;DHT22;2170;48.794;9.182;2023-12-22T11:07:40;9.00;99.90
4314;DHT22;2170;48.794;9.182;2023-12-22T11:10:31;8.90;99.90
4314;DHT22;2170;48.794;9.182;2023-12-22T11:13:18;8.90;99.90
4314;DHT22;2170;48.794;9.182;2023-12-22T11:15:56;8.90;99.90
4314;DHT22;2170;48.794;9.182;2023-12-22T11:18:42;8.90;99.90
4314;DHT22;2170;48.794;9.182;2023-12-22T11:21:30;8.60;99.90
4314;DHT22;2170;48.794;9.182;2023-12-22T11:24:02;8.50;99.90
4314;DHT22;2170;48.794;9.182;2023-12-22T11:27:02;8.80;99.90
4314;DHT22;2170;48.794;9.182;2023-12-22T11:29:51;8.60;99.90
4314;DHT22;2170;48.794;9.182;2023-12-22T11:32:40;8.70;99.90
4314;DHT22;2170;48.794;9.182;2023-12-22T11:35:29;8.70;99.90
4314;DHT22;2170;48.794;9.182;2023-12-22T11:38:30;8.60;99.90
4314;DHT22;2170;48.794;9.182;2023-12-22T11:41:20;8.60;99.90
4314;DHT22;2170;48.794;9.182;2023-12-22T11:44:00;8.50;99.90
4314;DHT22;2170;48.794;9.182;2023-12-22T11:46:43;8.50;99.90
4314;DHT22;2170;48.794;9.182;2023-12-22T11:49:31;8.50;99.90
4314;DHT22;2170;48.794;9.182;2023-12-22T11:52:25;8.40;99.90
4314;DHT22;2170;48.794;9.182;2023-12-22T11:55:06;8.10;99.90
4314;DHT22;2170;48.794;9.182;2023-12-22T11:57:41;8.40;99.90
4314;DHT22;2170;48.794;9.182;2023-12-22T12:00:37;8.30;99.90
4314;DHT22;2170;48.794;9.182;2023-12-22T12:03:23;8.20;99.90
4314;DHT22;2170;48.794;9.182;2023-12-22T12:06:21;8.20;99.90
4314;DHT22;2170;48.794;9.182;2023-12-22T12:09:00;7.90;99.90
4314;DHT22;2170;48.794;9.182;2023-12-22T12:12:12;7.90;99.90
4314;DHT22;2170;48.794;9.182;2023-12-22T12:14:44;8.20;99.90
4314;DHT22;2170;48.794;9.182;2023-12-22T12:17:18;8.20;99.90
4314;DHT22;2170;48.794;9.182;2023-12-22T12:19:56;8.10;99.90
4314;DHT22;2170;48.794;9.182;2023-12-22T12:22:28;8.20;99.90
4314;DHT22;2170;48.794;9.182;2023-12-22T12:24:59;8.20;99.90
4314;DHT22;2170;48.794;9.182;2023-12-22T12:27:34;8.20;99.90
4314;DHT22;2170;48.794;9.182;2023-12-22T12:30:13;8.20;99.90
4314;DHT22;2170;48.794;9.182;2023-12-22T12:32:44;8.20;99.90
4314;DHT22;2170;48.794;9.182;2023-12-22T12:35:25;8.10;99.90
4314;DHT22;2170;48.794;9.182;2023-12-22T12:37:55;8.20;99.90
4314;DHT22;2170;48.794;9.182;2023-12-22T12:40:27;8.20;99.90
4314;DHT22;2170;48.794;9.182;2023-12-22T12:43:04;8.50;99.90
4314;DHT22;2170;48.794;9.182;2023-12-22T12:45:41;8.30;99.90
4314;DHT22;2170;48.794;9.182;2023-12-22T12:48:10;8.30;99.90
4314;DHT22;2170;48.794;9.182;2023-12-22T12:50:45;8.30;99.90
4314;DHT22;2170;48.794;9.182;2023-12-22T12:53:14;8.20;99.90
4314;DHT22;2170;48.794;9.182;2023-12-22T12:55:56;8.30;99.90
4314;DHT22;2170;48.794;9.182;2023-12-22T12:58:32;8.30;99.90
4314;DHT22;2170;48.794;9.182;2023-12-22T13:01:09;8.30;99.90
4314;DHT22;2170;48.794;9.182;2023-12-22T13:03:53;8.30;99.90
4314;DHT22;2170;48.794;9.182;2023-12-22T13:06:25;8.30;99.90
4314;DHT22;2170;48.794;9.182;2023-12-22T13:08:53;8.60;99.90
4314;DHT22;2170;48.794;9.182;2023-12-22T13:11:25;8.40;99.90
4314;DHT22;2170;48.794;9.182;2023-12-22T13:17:32;8.10;99.90
4314;DHT22;2170;48.794;9.182;2023-12-22T13:20:32;8.40;99.90
4314;DHT22;2170;48.794;9.182;2023-12-22T13:23:28;8.50;99.90
4314;DHT22;2170;48.794;9.182;2023-12-22T13:26:16;8.60;99.90
4314;DHT22;2170;48.794;9.182;2023-12-22T13:29:02;8.80;99.90
4314;DHT22;2170;48.794;9.182;2023-12-22T13:38:49;9.40;99.90
4314;DHT22;2170;48.794;9.182;2023-12-22T13:41:40;9.40;99.90
4314;DHT22;2170;48.794;9.182;2023-12-22T13:44:11;9.50;99.90
4314;DHT22;2170;48.794;9.182;2023-12-22T13:46:50;9.50;99.90
4314;DHT22;2170;48.794;9.182;2023-12-22T13:49:25;9.60;99.90
4314;DHT22;2170;48.794;9.182;2023-12-22T13:51:59;9.60;99.90
4314;DHT22;2170;48.794;9.182;2023-12-22T13:54:49;9.60;99.90
4314;DHT22;2170;48.794;9.182;2023-12-22T14:11:30;9.70;99.90
4314;DHT22;2170;48.794;9.182;2023-12-22T14:14:41;9.80;99.90
4314;DHT22;2170;48.794;9.182;2023-12-22T14:18:05;10.00;99.90
4314;DHT22;2170;48.794;9.182;2023-12-22T14:21:08;10.00;99.90
4314;DHT22;2170;48.794;9.182;2023-12-22T14:24:21;10.10;99.90
4314;DHT22;2170;48.794;9.182;2023-12-22T14:27:26;9.80;99.90
4314;DHT22;2170;48.794;9.182;2023-12-22T14:30:10;10.10;99.90
4314;DHT22;2170;48.794;9.182;2023-12-22T14:32:50;10.30;99.90
4314;DHT22;2170;48.794;9.182;2023-12-22T14:35:27;10.30;99.90
4314;DHT22;2170;48.794;9.182;2023-12-22T14:38:02;10.10;99.90
4314;DHT22;2170;48.794;9.182;2023-12-22T14:40:46;10.10;99.90
4314;DHT22;2170;48.794;9.182;2023-12-22T14:43:27;10.20;99.90
4314;DHT22;2170;48.794;9.182;2023-12-22T14:46:12;10.20;99.90
4314;DHT22;2170;48.794;9.182;2023-12-22T14:48:51;9.90;99.90
4314;DHT22;2170;48.794;9.182;2023-12-22T14:51:43;10.20;99.90
4314;DHT22;2170;48.794;9.182;2023-12-22T14:54:24;10.20;99.90
4314;DHT22;2170;48.794;9.182;2023-12-22T14:57:27;10.40;99.90
4314;DHT22;2170;48.794;9.182;2023-12-22T15:00:05;10.20;99.90
4314;DHT22;2170;48.794;9.182;2023-12-22T15:02:40;10.30;99.90
4314;DHT22;2170;48.794;9.182;2023-12-22T15:05:25;10.30;99.90
4314;DHT22;2170;48.794;9.182;2023-12-22T15:07:57;10.50;99.90
4314;DHT22;2170;48.794;9.182;2023-12-22T15:10:50;10.40;99.90
4314;DHT22;2170;48.794;9.182;2023-12-22T15:13:45;10.10;99.90
4314;DHT22;2170;48.794;9.182;2023-12-22T15:16:42;10.00;99.90
4314;DHT22;2170;48.794;9.182;2023-12-22T15:19:17;10.20;99.90
4314;DHT22;2170;48.794;9.182;2023-12-22T15:22:09;10.00;99.90
4314;DHT22;2170;48.794;9.182;2023-12-22T15:25:06;10.20;99.90
4314;DHT22;2170;48.794;9.182;2023-12-22T15:27:42;10.20;99.90
4314;DHT22;2170;48.794;9.182;2023-12-22T15:33:22;10.30;99.90
4314;DHT22;2170;48.794;9.182;2023-12-22T15:35:58;10.30;99.90
4314;DHT22;2170;48.794;9.182;2023-12-22T15:38:37;10.20;99.90
4314;DHT22;2170;48.794;9.182;2023-12-22T15:41:13;10.30;99.90
4314;DHT22;2170;48.794;9.182;2023-12-22T15:44:31;10.50;99.90
4314;DHT22;2170;48.794;9.182;2023-12-22T15:50:46;10.30;99.90
4314;DHT22;2170;48.794;9.182;2023-12-22T15:53:40;10.30;99.90
4314;DHT22;2170;48.794;9.182;2023-12-22T15:56:46;10.40;99.90
4314;DHT22;2170;48.794;9.182;2023-12-22T15:59:31;10.60;99.90
4314;DHT22;2170;48.794;9.182;2023-12-22T16:02:21;10.40;99.90
4314;DHT22;2170;48.794;9.182;2023-12-22T16:05:00;10.60;99.90
4314;DHT22;2170;48.794;9.182;2023-12-22T16:11:02;10.20;99.90
4314;DHT22;2170;48.794;9.182;2023-12-22T16:13:48;10.40;99.90
4314;DHT22;2170;48.794;9.182;2023-12-22T16:16:38;10.50;99.90
4314;DHT22;2170;48.794;9.182;2023-12-22T16:19:25;10.40;99.90
4314;DHT22;2170;48.794;9.182;2023-12-22T16:22:00;10.40;99.90
4314;DHT22;2170;48.794;9.182;2023-12-22T16:31:25;10.40;99.90
4314;DHT22;2170;48.794;9.182;2023-12-22T16:33:56;10.40;99.90
4314;DHT22;2170;48.794;9.182;2023-12-22T16:36:36;10.40;99.90
4314;DHT22;2170;48.794;9.182;2023-12-22T16:45:04;10.60;99.90
4314;DHT22;2170;48.794;9.182;2023-12-22T16:47:46;10.20;99.90
4314;DHT22;2170;48.794;9.182;2023-12-22T16:50:39;10.40;99.90
4314;DHT22;2170;48.794;9.182;2023-12-22T16:53:11;10.40;99.90
4314;DHT22;2170;48.794;9.182;2023-12-22T16:55:54;10.40;99.90
4314;DHT22;2170;48.794;9.182;2023-12-22T16:58:30;10.40;99.90
4314;DHT22;2170;48.794;9.182;2023-12-22T17:01:02;10.40;99.90
4314;DHT22;2170;48.794;9.182;2023-12-22T17:03:40;10.40;99.90
4314;DHT22;2170;48.794;9.182;2023-12-22T17:06:35;10.40;99.90
4314;DHT22;2170;48.794;9.182;2023-12-22T17:09:15;10.50;99.90
4314;DHT22;2170;48.794;9.182;2023-12-22T17:12:04;10.40;99.90
4314;DHT22;2170;48.794;9.182;2023-12-22T17:14:58;10.50;99.90
4314;DHT22;2170;48.794;9.182;2023-12-22T17:17:52;10.50;99.90
4314;DHT22;2170;48.794;9.182;2023-12-22T17:20:39;10.50;99.90
4314;DHT22;2170;48.794;9.182;2023-12-22T17:23:15;10.50;99.90
4314;DHT22;2170;48.794;9.182;2023-12-22T17:25:49;10.50;99.90
4314;DHT22;2170;48.794;9.182;2023-12-22T17:28:37;10.40;99.90
4314;DHT22;2170;48.794;9.182;2023-12-22T17:31:19;10.40;99.90
4314;DHT22;2170;48.794;9.182;2023-12-22T17:37:28;10.50;99.90
4314;DHT22;2170;48.794;9.182;2023-12-22T17:40:17;10.40;99.90
4314;DHT22;2170;48.794;9.182;2023-12-22T17:42:59;10.60;99.90
4314;DHT22;2170;48.794;9.182;2023-12-22T17:46:00;10.40;99.90
4314;DHT22;2170;48.794;9.182;2023-12-22T17:52:16;10.50;99.90
4314;DHT22;2170;48.794;9.182;2023-12-22T17:58:53;10.40;99.90
4314;DHT22;2170;48.794;9.182;2023-12-22T18:01:51;10.40;99.90
4314;DHT22;2170;48.794;9.182;2023-12-22T18:04:58;10.40;99.90
4314;DHT22;2170;48.794;9.182;2023-12-22T18:07:45;10.40;99.90
4314;DHT22;2170;48.794;9.182;2023-12-22T18:10:40;10.40;99.90
4314;DHT22;2170;48.794;9.182;2023-12-22T18:13:32;10.40;99.90
4314;DHT22;2170;48.794;9.182;2023-12-22T18:19:36;10.40;99.90
4314;DHT22;2170;48.794;9.182;2023-12-22T18:26:18;10.40;99.90
4314;DHT22;2170;48.794;9.182;2023-12-22T18:33:00;10.50;99.90
4314;DHT22;2170;48.794;9.182;2023-12-22T18:36:29;10.50;99.90
4314;DHT22;2170;48.794;9.182;2023-12-22T18:39:23;10.30;99.90
4314;DHT22;2170;48.794;9.182;2023-12-22T18:45:55;10.00;99.90
4314;DHT22;2170;48.794;9.182;2023-12-22T18:48:47;10.30;99.90
4314;DHT22;2170;48.794;9.182;2023-12-22T18:51:55;10.30;99.90
4314;DHT22;2170;48.794;9.182;2023-12-22T18:55:02;10.50;99.90
4314;DHT22;2170;48.794;9.182;2023-12-22T18:57:58;10.20;99.90
4314;DHT22;2170;48.794;9.182;2023-12-22T19:00:53;10.20;99.90
4314;DHT22;2170;48.794;9.182;2023-12-22T19:03:25;10.30;99.90
4314;DHT22;2170;48.794;9.182;2023-12-22T19:05:58;10.20;99.90
4314;DHT22;2170;48.794;9.182;2023-12-22T19:08:44;10.30;99.90
4314;DHT22;2170;48.794;9.182;2023-12-22T19:15:01;10.30;99.90
4314;DHT22;2170;48.794;9.182;2023-12-22T19:17:38;10.20;99.90
4314;DHT22;2170;48.794;9.182;2023-12-22T19:20:19;9.90;99.90
4314;DHT22;2170;48.794;9.182;2023-12-22T19:23:23;10.00;99.90
4314;DHT22;2170;48.794;9.182;2023-12-22T19:28:33;9.90;99.90
4314;DHT22;2170;48.794;9.182;2023-12-22T19:29:24;10.10;99.90
4314;DHT22;2170;48.794;9.182;2023-12-22T19:32:25;10.20;99.90
4314;DHT22;2170;48.794;9.182;2023-12-22T19:38:53;9.90;99.90
4314;DHT22;2170;48.794;9.182;2023-12-22T19:42:07;10.10;99.90
4314;DHT22;2170;48.794;9.182;2023-12-22T19:44:56;10.10;99.90
4314;DHT22;2170;48.794;9.182;2023-12-22T19:51:14;10.10;99.90
4314;DHT22;2170;48.794;9.182;2023-12-22T19:54:12;10.10;99.90
4314;DHT22;2170;48.794;9.182;2023-12-22T19:59:29;10.10;99.90
4314;DHT22;2170;48.794;9.182;2023-12-22T20:00:47;9.80;99.90
4314;DHT22;2170;48.794;9.182;2023-12-22T20:03:26;10.10;99.90
4314;DHT22;2170;48.794;9.182;2023-12-22T20:13:07;9.80;99.90
4314;DHT22;2170;48.794;9.182;2023-12-22T20:19:52;10.10;99.90
4314;DHT22;2170;48.794;9.182;2023-12-22T20:46:28;10.00;99.90
4314;DHT22;2170;48.794;9.182;2023-12-22T21:07:14;9.60;99.90
4314;DHT22;2170;48.794;9.182;2023-12-22T21:13:25;9.90;99.90
4314;DHT22;2170;48.794;9.182;2023-12-22T21:17:10;9.60;99.90
4314;DHT22;2170;48.794;9.182;2023-12-22T21:20:17;9.80;99.90
4314;DHT22;2170;48.794;9.182;2023-12-22T21:23:43;9.60;99.90
4314;DHT22;2170;48.794;9.182;2023-12-22T21:27:22;9.60;99.90
4314;DHT22;2170;48.794;9.182;2023-12-22T21:30:29;9.60;99.90
4314;DHT22;2170;48.794;9.182;2023-12-22T21:33:19;9.90;99.90
4314;DHT22;2170;48.794;9.182;2023-12-22T21:36:43;9.90;99.90
4314;DHT22;2170;48.794;9.182;2023-12-22T21:43:03;9.80;99.90
4314;DHT22;2170;48.794;9.182;2023-12-22T21:46:19;9.80;99.90
4314;DHT22;2170;48.794;9.182;2023-12-22T21:49:15;9.80;99.90